Terminal Aerodrome Forecast
Issued by NWS

Home | Current Version | Previous Version | Text Only | Print | Product List | Glossary On
Versions: 1 2 3 4 5 6 7 8 9 10 11 12
000
FTUS46 KSEW 011100
TAFHQM
TAF
KHQM 011125Z 0112/0212 06003KT P6SM VCSH SCT035 BKN060
     FM011800 23012KT P6SM -SHRA BKN035 BKN060
     FM012200 24015KT 6SM -SHRA BR OVC035
     FM020200 28010KT P6SM VCSH SCT040 BKN080=

USA.gov is the U.S. government's official web portal to all federal, state and local government web resources and services.